Time,TemperatureF,DewpointF,PressureIn,WindDirection,WindDirectionDegrees,WindSpeedMPH,WindSpeedGustMPH,Humidity,HourlyPrecipIn,Conditions,Clouds,dailyrainin,SoftwareType,DateUTC
2013-03-04 00:00:00,30.6,19.4,29.89,NNW,338,5.8,6.7,63,0.00,,,0.00,WUHU216HW,2013-03-04 05:00:00,
2013-03-04 00:05:00,30.6,19.1,29.89,North,0,2.5,6.7,62,0.00,,,0.00,WUHU216HW,2013-03-04 05:05:00,
2013-03-04 00:10:00,30.6,19.4,29.89,NNW,338,4.7,6.3,63,0.00,,,0.00,WUHU216HW,2013-03-04 05:10:00,
2013-03-04 00:15:00,30.6,19.1,29.89,West,270,2.5,6.3,62,0.00,,,0.00,WUHU216HW,2013-03-04 05:15:00,
2013-03-04 00:20:00,30.4,18.9,29.89,West,270,4.5,8.3,62,0.00,,,0.00,WUHU216HW,2013-03-04 05:20:00,
2013-03-04 00:25:00,30.4,18.9,29.90,NNW,338,4.9,8.3,62,0.00,,,0.00,WUHU216HW,2013-03-04 05:25:00,
2013-03-04 00:30:00,30.2,18.7,29.90,NW,315,4.0,5.1,62,0.00,,,0.00,WUHU216HW,2013-03-04 05:30:00,
2013-03-04 00:35:00,30.2,18.7,29.90,WNW,293,2.2,4.7,62,0.00,,,0.00,WUHU216HW,2013-03-04 05:35:00,
2013-03-04 00:40:00,30.1,18.5,29.90,North,0,1.8,4.7,62,0.00,,,0.00,WUHU216HW,2013-03-04 05:40:00,
2013-03-04 00:45:00,30.1,18.9,29.90,NNW,338,4.7,4.7,63,0.00,,,0.00,WUHU216HW,2013-03-04 05:45:00,
2013-03-04 00:50:00,29.9,18.4,29.90,NNE,23,4.9,4.9,62,0.00,,,0.00,WUHU216HW,2013-03-04 05:50:00,
2013-03-04 00:55:00,29.9,18.4,29.90,WNW,293,3.4,8.3,62,0.00,,,0.00,WUHU216HW,2013-03-04 05:55:00,
2013-03-04 01:00:00,29.9,18.4,29.90,NNW,338,5.4,8.3,62,0.00,,,0.00,WUHU216HW,2013-03-04 06:00:00,
2013-03-04 01:05:00,29.9,18.4,29.90,WNW,293,4.5,6.7,62,0.00,,,0.00,WUHU216HW,2013-03-04 06:05:00,
2013-03-04 01:10:00,29.9,18.0,29.90,NNE,23,1.8,6.7,61,0.00,,,0.00,WUHU216HW,2013-03-04 06:10:00,
2013-03-04 01:15:00,29.9,18.0,29.91,NNW,338,2.5,7.6,61,0.00,,,0.00,WUHU216HW,2013-03-04 06:15:00,
2013-03-04 01:20:00,29.9,18.0,29.91,NNW,338,2.5,7.6,61,0.00,,,0.00,WUHU216HW,2013-03-04 06:20:00,
2013-03-04 01:25:00,29.7,17.9,29.91,NNW,338,4.9,4.9,61,0.00,,,0.00,WUHU216HW,2013-03-04 06:25:00,
2013-03-04 01:30:00,29.7,17.9,29.91,NNW,338,3.4,6.0,61,0.00,,,0.00,WUHU216HW,2013-03-04 06:30:00,
2013-03-04 01:35:00,29.7,17.9,29.90,NW,315,4.7,6.9,61,0.00,,,0.00,WUHU216HW,2013-03-04 06:35:00,
2013-03-04 01:40:00,29.5,17.7,29.91,NW,315,4.7,6.9,61,0.00,,,0.00,WUHU216HW,2013-03-04 06:40:00,
2013-03-04 01:45:00,29.5,17.7,29.90,NNW,338,4.0,5.8,61,0.00,,,0.00,WUHU216HW,2013-03-04 06:45:00,
2013-03-04 01:50:00,29.5,17.7,29.91,North,0,2.5,5.8,61,0.00,,,0.00,WUHU216HW,2013-03-04 06:50:00,
2013-03-04 01:55:00,29.5,17.4,29.90,North,0,4.0,5.4,60,0.00,,,0.00,WUHU216HW,2013-03-04 06:55:00,
2013-03-04 02:00:00,29.5,17.7,29.91,NNW,338,3.4,4.7,61,0.00,,,0.00,WUHU216HW,2013-03-04 07:00:00,
2013-03-04 02:05:00,29.3,17.6,29.90,NW,315,8.9,8.9,61,0.00,,,0.00,WUHU216HW,2013-03-04 07:05:00,
2013-03-04 02:10:00,29.3,17.6,29.90,NW,315,3.4,8.9,61,0.00,,,0.00,WUHU216HW,2013-03-04 07:10:00,
2013-03-04 02:15:00,29.3,17.6,29.91,NNW,338,3.1,7.2,61,0.00,,,0.00,WUHU216HW,2013-03-04 07:15:00,
2013-03-04 02:20:00,29.2,17.4,29.91,SW,225,4.3,6.3,61,0.00,,,0.00,WUHU216HW,2013-03-04 07:20:00,
2013-03-04 02:25:00,29.2,17.4,29.90,WNW,293,2.7,6.3,61,0.00,,,0.00,WUHU216HW,2013-03-04 07:25:00,
2013-03-04 02:30:00,29.2,17.4,29.91,West,270,5.4,5.4,61,0.00,,,0.00,WUHU216HW,2013-03-04 07:30:00,
2013-03-04 02:35:00,29.2,17.4,29.91,NW,315,4.0,7.6,61,0.00,,,0.00,WUHU216HW,2013-03-04 07:35:00,
2013-03-04 02:40:00,29.2,17.4,29.91,WSW,248,2.7,7.6,61,0.00,,,0.00,WUHU216HW,2013-03-04 07:40:00,
2013-03-04 02:45:00,29.0,17.2,29.91,NW,315,3.8,6.0,61,0.00,,,0.00,WUHU216HW,2013-03-04 07:45:00,
2013-03-04 02:50:00,29.0,17.2,29.90,WNW,293,2.5,6.3,61,0.00,,,0.00,WUHU216HW,2013-03-04 07:50:00,
2013-03-04 02:55:00,29.0,17.6,29.90,North,0,4.0,6.9,62,0.00,,,0.00,WUHU216HW,2013-03-04 07:55:00,
2013-03-04 03:00:00,28.8,17.5,29.90,NNE,23,2.5,8.9,62,0.00,,,0.00,WUHU216HW,2013-03-04 08:00:00,
2013-03-04 03:05:00,28.8,17.5,29.90,WNW,293,3.6,8.9,62,0.00,,,0.00,WUHU216HW,2013-03-04 08:05:00,
2013-03-04 03:10:00,28.8,17.5,29.91,NW,315,4.5,8.3,62,0.00,,,0.00,WUHU216HW,2013-03-04 08:10:00,
2013-03-04 03:15:00,28.6,17.3,29.91,WSW,248,3.4,5.4,62,0.00,,,0.00,WUHU216HW,2013-03-04 08:15:00,
2013-03-04 03:20:00,28.6,17.3,29.91,NNW,338,2.9,4.7,62,0.00,,,0.00,WUHU216HW,2013-03-04 08:20:00,
2013-03-04 03:26:00,28.4,17.1,29.91,NW,315,5.6,5.6,62,0.00,,,0.00,WUHU216HW,2013-03-04 08:26:00,
2013-03-04 03:31:00,28.4,17.1,29.91,NW,315,4.5,5.6,62,0.00,,,0.00,WUHU216HW,2013-03-04 08:31:00,
2013-03-04 03:36:00,28.4,17.1,29.91,NW,315,4.3,4.5,62,0.00,,,0.00,WUHU216HW,2013-03-04 08:36:00,
2013-03-04 03:41:00,28.4,17.1,29.91,NW,315,1.3,4.3,62,0.00,,,0.00,WUHU216HW,2013-03-04 08:41:00,
2013-03-04 03:46:00,28.3,16.9,29.91,NNW,338,4.3,4.3,62,0.00,,,0.00,WUHU216HW,2013-03-04 08:46:00,
2013-03-04 03:51:00,28.3,17.3,29.91,WNW,293,4.0,4.3,63,0.00,,,0.00,WUHU216HW,2013-03-04 08:51:00,
2013-03-04 03:56:00,28.3,17.3,29.91,NNW,338,1.3,4.9,63,0.00,,,0.00,WUHU216HW,2013-03-04 08:56:00,
2013-03-04 04:01:00,28.3,17.6,29.92,NNW,338,2.0,6.3,64,0.00,,,0.00,WUHU216HW,2013-03-04 09:01:00,
2013-03-04 04:06:00,28.1,17.1,29.91,NW,315,3.4,6.3,63,0.00,,,0.00,WUHU216HW,2013-03-04 09:06:00,
2013-03-04 04:11:00,28.1,17.5,29.91,WNW,293,3.1,4.3,64,0.00,,,0.00,WUHU216HW,2013-03-04 09:11:00,
2013-03-04 04:16:00,28.1,17.5,29.91,West,270,1.8,4.3,64,0.00,,,0.00,WUHU216HW,2013-03-04 09:16:00,
2013-03-04 04:21:00,28.1,17.5,29.92,NW,315,1.3,4.0,64,0.00,,,0.00,WUHU216HW,2013-03-04 09:21:00,
2013-03-04 04:26:00,28.1,17.5,29.92,West,270,1.1,4.0,64,0.00,,,0.00,WUHU216HW,2013-03-04 09:26:00,
2013-03-04 04:31:00,28.1,17.5,29.92,WSW,248,2.0,6.3,64,0.00,,,0.00,WUHU216HW,2013-03-04 09:31:00,
2013-03-04 04:36:00,28.1,17.5,29.92,West,270,2.5,6.3,64,0.00,,,0.00,WUHU216HW,2013-03-04 09:36:00,
2013-03-04 04:41:00,28.1,17.5,29.92,NNW,338,2.2,3.4,64,0.00,,,0.00,WUHU216HW,2013-03-04 09:41:00,
2013-03-04 04:46:00,27.9,17.6,29.92,WNW,293,4.5,4.5,65,0.00,,,0.00,WUHU216HW,2013-03-04 09:46:00,
2013-03-04 04:51:00,28.1,17.8,29.92,WNW,293,1.3,4.5,65,0.00,,,0.00,WUHU216HW,2013-03-04 09:51:00,
2013-03-04 04:56:00,27.9,17.6,29.92,NNW,338,1.8,5.8,65,0.00,,,0.00,WUHU216HW,2013-03-04 09:56:00,
2013-03-04 05:01:00,28.1,17.8,29.92,NW,315,3.1,8.1,65,0.00,,,0.00,WUHU216HW,2013-03-04 10:01:00,
2013-03-04 05:06:00,27.9,17.6,29.92,NW,315,4.5,8.1,65,0.00,,,0.00,WUHU216HW,2013-03-04 10:06:00,
2013-03-04 05:11:00,28.1,17.8,29.92,NNW,338,2.7,5.4,65,0.00,,,0.00,WUHU216HW,2013-03-04 10:11:00,
2013-03-04 05:16:00,27.9,17.6,29.93,West,270,3.4,5.4,65,0.00,,,0.00,WUHU216HW,2013-03-04 10:16:00,
2013-03-04 05:21:00,27.9,17.6,29.93,West,270,1.6,3.4,65,0.00,,,0.00,WUHU216HW,2013-03-04 10:21:00,
2013-03-04 05:26:00,27.9,18.0,29.93,North,0,2.5,3.4,66,0.00,,,0.00,WUHU216HW,2013-03-04 10:26:00,
2013-03-04 05:31:00,27.9,18.0,29.93,NW,315,4.3,4.7,66,0.00,,,0.00,WUHU216HW,2013-03-04 10:31:00,
2013-03-04 05:36:00,27.9,18.0,29.93,West,270,1.1,4.7,66,0.00,,,0.00,WUHU216HW,2013-03-04 10:36:00,
2013-03-04 05:41:00,27.9,18.0,29.93,NW,315,3.8,4.3,66,0.00,,,0.00,WUHU216HW,2013-03-04 10:41:00,
2013-03-04 05:46:00,27.9,18.0,29.93,NW,315,4.0,4.0,66,0.00,,,0.00,WUHU216HW,2013-03-04 10:46:00,
2013-03-04 05:51:00,27.9,18.0,29.93,North,0,4.7,4.7,66,0.00,,,0.00,WUHU216HW,2013-03-04 10:51:00,
2013-03-04 05:56:00,27.9,18.0,29.93,NNW,338,1.1,4.7,66,0.00,,,0.00,WUHU216HW,2013-03-04 10:56:00,
2013-03-04 06:01:00,27.9,18.0,29.93,WNW,293,2.5,4.7,66,0.00,,,0.00,WUHU216HW,2013-03-04 11:01:00,
2013-03-04 06:06:00,27.9,18.0,29.93,NW,315,3.4,4.5,66,0.00,,,0.00,WUHU216HW,2013-03-04 11:06:00,
2013-03-04 06:11:00,27.9,18.0,29.93,NNW,338,3.4,5.4,66,0.00,,,0.00,WUHU216HW,2013-03-04 11:11:00,
2013-03-04 06:16:00,27.9,18.0,29.93,WSW,248,4.0,5.4,66,0.00,,,0.00,WUHU216HW,2013-03-04 11:16:00,
2013-03-04 06:21:00,27.9,18.0,29.93,WNW,293,3.1,4.0,66,0.00,,,0.00,WUHU216HW,2013-03-04 11:21:00,
2013-03-04 06:26:00,27.9,18.0,29.94,NW,315,3.4,5.8,66,0.00,,,0.00,WUHU216HW,2013-03-04 11:26:00,
2013-03-04 06:31:00,28.1,18.2,29.94,NW,315,3.1,5.8,66,0.00,,,0.00,WUHU216HW,2013-03-04 11:31:00,
2013-03-04 06:36:00,28.1,18.2,29.94,NW,315,4.3,4.3,66,0.00,,,0.00,WUHU216HW,2013-03-04 11:36:00,
2013-03-04 06:41:00,28.1,18.2,29.94,NW,315,6.3,6.3,66,0.00,,,0.00,WUHU216HW,2013-03-04 11:41:00,
2013-03-04 06:46:00,28.1,18.2,29.94,NW,315,1.8,6.3,66,0.00,,,0.00,WUHU216HW,2013-03-04 11:46:00,
2013-03-04 06:51:00,28.3,18.4,29.94,WNW,293,4.3,5.8,66,0.00,,,0.00,WUHU216HW,2013-03-04 11:51:00,
2013-03-04 06:56:00,28.3,18.4,29.94,WNW,293,3.4,4.3,66,0.00,,,0.00,WUHU216HW,2013-03-04 11:56:00,
2013-03-04 07:01:00,28.4,18.5,29.94,NNW,338,2.0,9.6,66,0.00,,,0.00,WUHU216HW,2013-03-04 12:01:00,
2013-03-04 07:06:00,28.4,18.5,29.94,WNW,293,2.2,9.6,66,0.00,,,0.00,WUHU216HW,2013-03-04 12:06:00,
2013-03-04 07:11:00,28.4,18.5,29.94,NW,315,2.9,6.0,66,0.00,,,0.00,WUHU216HW,2013-03-04 12:11:00,
2013-03-04 07:16:00,28.8,18.9,29.94,NNW,338,2.5,5.8,66,0.00,,,0.00,WUHU216HW,2013-03-04 12:16:00,
2013-03-04 07:21:00,29.0,19.0,29.94,NW,315,6.0,6.7,66,0.00,,,0.00,WUHU216HW,2013-03-04 12:21:00,
2013-03-04 07:26:00,29.2,19.2,29.94,NW,315,4.9,6.7,66,0.00,,,0.00,WUHU216HW,2013-03-04 12:26:00,
2013-03-04 07:31:00,29.5,19.5,29.95,NNW,338,2.2,5.8,66,0.00,,,0.00,WUHU216HW,2013-03-04 12:31:00,
2013-03-04 07:36:00,29.9,19.8,29.95,WNW,293,2.9,5.8,66,0.00,,,0.00,WUHU216HW,2013-03-04 12:36:00,
2013-03-04 07:41:00,30.1,20.0,29.95,NNW,338,8.1,8.1,66,0.00,,,0.00,WUHU216HW,2013-03-04 12:41:00,
2013-03-04 07:46:00,30.2,19.8,29.95,NW,315,5.6,8.1,65,0.00,,,0.00,WUHU216HW,2013-03-04 12:46:00,
2013-03-04 07:51:00,30.6,20.2,29.95,WNW,293,2.7,8.1,65,0.00,,,0.00,WUHU216HW,2013-03-04 12:51:00,
2013-03-04 07:56:00,30.6,20.2,29.95,WSW,248,5.4,7.8,65,0.00,,,0.00,WUHU216HW,2013-03-04 12:56:00,
2013-03-04 08:01:00,31.0,20.2,29.95,NW,315,5.4,7.8,64,0.00,,,0.00,WUHU216HW,2013-03-04 13:01:00,
2013-03-04 08:06:00,31.0,20.2,29.95,NW,315,5.4,7.6,64,0.00,,,0.00,WUHU216HW,2013-03-04 13:06:00,
2013-03-04 08:31:00,32.0,20.5,29.94,West,270,5.6,5.6,62,0.00,,,0.00,WUHU216HW,2013-03-04 13:31:00,
2013-03-04 08:36:00,32.0,20.5,29.95,NW,315,8.7,8.7,62,0.00,,,0.00,WUHU216HW,2013-03-04 13:36:00,
2013-03-04 08:41:00,32.0,20.5,29.94,WNW,293,4.3,8.7,62,0.00,,,0.00,WUHU216HW,2013-03-04 13:41:00,
2013-03-04 08:46:00,32.0,20.5,29.94,West,270,4.7,7.6,62,0.00,,,0.00,WUHU216HW,2013-03-04 13:46:00,
2013-03-04 08:51:00,32.0,20.5,29.94,West,270,4.7,4.7,62,0.00,,,0.00,WUHU216HW,2013-03-04 13:51:00,
2013-03-04 09:00:00,32.8,21.2,29.95,NNW,338,6.7,6.7,62,0.00,,,0.00,WUHU216HW,2013-03-04 14:00:00,
2013-03-04 09:05:00,33.1,21.2,29.95,NNW,338,8.1,8.1,61,0.00,,,0.00,WUHU216HW,2013-03-04 14:05:00,
2013-03-04 09:10:00,32.9,20.6,29.95,NNW,338,4.5,11.0,60,0.00,,,0.00,WUHU216HW,2013-03-04 14:10:00,
2013-03-04 09:15:00,33.3,21.3,29.95,NW,315,7.8,11.0,61,0.00,,,0.00,WUHU216HW,2013-03-04 14:15:00,
2013-03-04 09:20:00,33.5,21.1,29.94,NW,315,4.7,7.8,60,0.00,,,0.00,WUHU216HW,2013-03-04 14:20:00,
2013-03-04 09:25:00,33.5,21.1,29.95,NNW,338,6.7,6.7,60,0.00,,,0.00,WUHU216HW,2013-03-04 14:25:00,
2013-03-04 09:30:00,33.5,21.1,29.95,NNW,338,6.7,6.7,60,0.00,,,0.00,WUHU216HW,2013-03-04 14:30:00,
2013-03-04 09:51:00,34.2,21.3,29.94,NNW,338,6.0,6.0,59,0.00,,,0.00,WUHU216HW,2013-03-04 14:51:00,
2013-03-04 09:56:00,34.6,21.7,29.94,WNW,293,8.5,8.5,59,0.00,,,0.00,WUHU216HW,2013-03-04 14:56:00,
2013-03-04 10:01:00,34.7,21.4,29.95,NNW,338,5.6,8.5,58,0.00,,,0.00,WUHU216HW,2013-03-04 15:01:00,
2013-03-04 10:06:00,34.9,21.3,29.94,NW,315,7.4,8.1,57,0.00,,,0.00,WUHU216HW,2013-03-04 15:06:00,
2013-03-04 10:11:00,34.9,21.6,29.94,West,270,3.4,13.0,58,0.00,,,0.00,WUHU216HW,2013-03-04 15:11:00,
2013-03-04 10:16:00,35.3,22.0,29.94,NW,315,3.4,13.0,58,0.00,,,0.00,WUHU216HW,2013-03-04 15:16:00,
2013-03-04 10:21:00,35.5,21.8,29.94,WSW,248,7.2,9.2,57,0.00,,,0.00,WUHU216HW,2013-03-04 15:21:00,
2013-03-04 10:26:00,35.5,21.8,29.94,NNW,338,7.6,9.4,57,0.00,,,0.00,WUHU216HW,2013-03-04 15:26:00,
2013-03-04 10:31:00,35.3,21.6,29.94,NNW,338,13.4,13.4,57,0.00,,,0.00,WUHU216HW,2013-03-04 15:31:00,
2013-03-04 10:36:00,35.5,21.8,29.94,NNW,338,5.8,13.4,57,0.00,,,0.00,WUHU216HW,2013-03-04 15:36:00,
2013-03-04 10:41:00,36.0,21.8,29.94,WSW,248,6.7,9.4,56,0.00,,,0.00,WUHU216HW,2013-03-04 15:41:00,
2013-03-04 10:46:00,36.2,22.0,29.95,NW,315,4.9,9.4,56,0.00,,,0.00,WUHU216HW,2013-03-04 15:46:00,
2013-03-04 10:51:00,36.4,21.7,29.94,NW,315,3.8,9.6,55,0.00,,,0.00,WUHU216HW,2013-03-04 15:51:00,
2013-03-04 10:56:00,36.7,21.6,29.94,ESE,113,6.9,9.6,54,0.00,,,0.00,WUHU216HW,2013-03-04 15:56:00,
2013-03-04 11:01:00,36.7,21.6,29.94,North,0,3.4,7.6,54,0.00,,,0.00,WUHU216HW,2013-03-04 16:01:00,
2013-03-04 11:06:00,37.1,22.0,29.94,NW,315,5.6,7.6,54,0.00,,,0.00,WUHU216HW,2013-03-04 16:06:00,
2013-03-04 11:11:00,37.3,22.1,29.94,NW,315,4.5,8.1,54,0.00,,,0.00,WUHU216HW,2013-03-04 16:11:00,
2013-03-04 11:16:00,37.4,21.4,29.94,NNW,338,6.9,8.1,52,0.00,,,0.00,WUHU216HW,2013-03-04 16:16:00,
2013-03-04 11:21:00,37.3,21.7,29.94,WSW,248,2.5,7.6,53,0.00,,,0.00,WUHU216HW,2013-03-04 16:21:00,
2013-03-04 11:26:00,37.6,21.5,29.94,West,270,4.3,7.2,52,0.00,,,0.00,WUHU216HW,2013-03-04 16:26:00,
2013-03-04 11:31:00,37.8,21.2,29.94,NW,315,8.5,10.3,51,0.00,,,0.00,WUHU216HW,2013-03-04 16:31:00,
2013-03-04 11:36:00,38.0,21.4,29.94,NW,315,7.4,10.3,51,0.00,,,0.00,WUHU216HW,2013-03-04 16:36:00,
2013-03-04 11:41:00,37.8,21.2,29.93,NW,315,7.6,9.2,51,0.00,,,0.00,WUHU216HW,2013-03-04 16:41:00,
2013-03-04 11:46:00,38.0,21.4,29.93,NNW,338,8.7,9.2,51,0.00,,,0.00,WUHU216HW,2013-03-04 16:46:00,
2013-03-04 11:51:00,38.3,21.8,29.93,NNW,338,7.2,8.9,51,0.00,,,0.00,WUHU216HW,2013-03-04 16:51:00,
2013-03-04 11:56:00,38.9,22.2,29.93,WNW,293,6.9,7.2,51,0.00,,,0.00,WUHU216HW,2013-03-04 16:56:00,
2013-03-04 12:01:00,39.4,21.8,29.93,NW,315,3.8,7.6,49,0.00,,,0.00,WUHU216HW,2013-03-04 17:01:00,
2013-03-04 12:06:00,39.4,21.2,29.93,WSW,248,7.6,7.6,48,0.00,,,0.00,WUHU216HW,2013-03-04 17:06:00,
2013-03-04 12:11:00,39.2,21.1,29.93,WNW,293,6.0,9.2,48,0.00,,,0.00,WUHU216HW,2013-03-04 17:11:00,
2013-03-04 12:16:00,39.6,22.0,29.93,NW,315,3.8,9.2,49,0.00,,,0.00,WUHU216HW,2013-03-04 17:16:00,
2013-03-04 12:22:00,39.8,22.2,29.92,NW,315,6.3,8.9,49,0.00,,,0.00,WUHU216HW,2013-03-04 17:22:00,
2013-03-04 12:26:00,40.0,22.2,29.92,West,270,5.4,8.9,49,0.00,,,0.00,WUHU216HW,2013-03-04 17:26:00,
2013-03-04 12:31:00,40.3,22.6,29.92,WNW,293,2.0,7.6,49,0.00,,,0.00,WUHU216HW,2013-03-04 17:31:00,
2013-03-04 12:36:00,40.7,22.4,29.92,WNW,293,6.0,8.5,48,0.00,,,0.00,WUHU216HW,2013-03-04 17:36:00,
2013-03-04 12:41:00,40.7,22.4,29.92,WNW,293,3.4,11.6,48,0.00,,,0.00,WUHU216HW,2013-03-04 17:41:00,
2013-03-04 12:46:00,40.9,22.1,29.92,NNW,338,6.9,11.6,47,0.00,,,0.00,WUHU216HW,2013-03-04 17:46:00,
2013-03-04 12:51:00,40.9,22.1,29.92,WNW,293,9.2,9.2,47,0.00,,,0.00,WUHU216HW,2013-03-04 17:51:00,
2013-03-04 12:56:00,41.0,22.2,29.92,NNW,338,6.3,9.2,47,0.00,,,0.00,WUHU216HW,2013-03-04 17:56:00,
2013-03-04 13:01:00,41.0,22.7,29.91,WSW,248,3.8,8.7,48,0.00,,,0.00,WUHU216HW,2013-03-04 18:01:00,
2013-03-04 13:06:00,41.4,23.0,29.91,WNW,293,4.0,8.5,48,0.00,,,0.00,WUHU216HW,2013-03-04 18:06:00,
2013-03-04 13:11:00,41.6,22.7,29.91,NW,315,6.7,8.5,47,0.00,,,0.00,WUHU216HW,2013-03-04 18:11:00,
2013-03-04 13:16:00,41.6,22.2,29.91,NNW,338,7.2,8.7,46,0.00,,,0.00,WUHU216HW,2013-03-04 18:16:00,
2013-03-04 13:21:00,41.9,22.5,29.90,WNW,293,8.3,8.7,46,0.00,,,0.00,WUHU216HW,2013-03-04 18:21:00,
2013-03-04 13:26:00,41.9,22.5,29.90,NW,315,6.3,8.3,46,0.00,,,0.00,WUHU216HW,2013-03-04 18:26:00,
2013-03-04 13:29:00,41.9,22.5,29.90,NW,315,6.3,8.3,46,0.00,,,0.00,WUHU216HW,2013-03-04 18:29:00,
2013-03-04 13:52:00,42.3,22.3,29.90,WNW,293,6.7,6.7,45,0.00,,,0.00,WUHU216HW,2013-03-04 18:52:00,
2013-03-04 13:57:00,42.3,22.3,29.90,NNW,338,6.0,7.6,45,0.00,,,0.00,WUHU216HW,2013-03-04 18:57:00,
2013-03-04 14:02:00,42.3,22.9,29.90,NW,315,10.3,10.3,46,0.00,,,0.00,WUHU216HW,2013-03-04 19:02:00,
2013-03-04 14:07:00,42.3,22.3,29.91,WNW,293,12.1,12.1,45,0.00,,,0.00,WUHU216HW,2013-03-04 19:07:00,
2013-03-04 14:12:00,42.3,22.3,29.90,NW,315,9.2,12.1,45,0.00,,,0.00,WUHU216HW,2013-03-04 19:12:00,
2013-03-04 14:17:00,42.5,22.5,29.90,NNW,338,4.5,12.1,45,0.00,,,0.00,WUHU216HW,2013-03-04 19:17:00,
2013-03-04 14:22:00,42.8,22.9,29.91,NNW,338,8.1,9.2,45,0.00,,,0.00,WUHU216HW,2013-03-04 19:22:00,
2013-03-04 14:27:00,43.2,23.8,29.90,WNW,293,4.9,8.9,46,0.00,,,0.00,WUHU216HW,2013-03-04 19:27:00,
2013-03-04 14:32:00,43.6,23.5,29.90,NW,315,6.3,8.1,45,0.00,,,0.00,WUHU216HW,2013-03-04 19:32:00,
2013-03-04 14:37:00,43.4,23.3,29.91,WNW,293,7.2,11.6,45,0.00,,,0.00,WUHU216HW,2013-03-04 19:37:00,
2013-03-04 14:42:00,43.6,23.5,29.91,NW,315,9.4,11.6,45,0.00,,,0.00,WUHU216HW,2013-03-04 19:42:00,
2013-03-04 14:47:00,43.2,22.7,29.91,NW,315,10.3,10.3,44,0.00,,,0.00,WUHU216HW,2013-03-04 19:47:00,
2013-03-04 14:52:00,43.0,23.1,29.90,NNW,338,6.3,10.3,45,0.00,,,0.00,WUHU216HW,2013-03-04 19:52:00,
2013-03-04 14:57:00,43.2,23.2,29.90,North,0,8.1,9.2,45,0.00,,,0.00,WUHU216HW,2013-03-04 19:57:00,
2013-03-04 15:02:00,43.7,23.1,29.91,NW,315,7.6,9.2,44,0.00,,,0.00,WUHU216HW,2013-03-04 20:02:00,
2013-03-04 15:07:00,43.9,23.3,29.90,WNW,293,6.0,8.3,44,0.00,,,0.00,WUHU216HW,2013-03-04 20:07:00,
2013-03-04 15:12:00,44.1,23.5,29.90,WNW,293,2.9,9.6,44,0.00,,,0.00,WUHU216HW,2013-03-04 20:12:00,
2013-03-04 15:17:00,44.6,23.4,29.90,NNW,338,8.1,9.6,43,0.00,,,0.00,WUHU216HW,2013-03-04 20:17:00,
2013-03-04 15:22:00,44.6,23.4,29.91,NNW,338,7.2,8.5,43,0.00,,,0.00,WUHU216HW,2013-03-04 20:22:00,
2013-03-04 15:27:00,44.3,23.0,29.91,NNW,338,7.6,9.2,43,0.00,,,0.00,WUHU216HW,2013-03-04 20:27:00,
2013-03-04 15:32:00,44.3,23.0,29.91,NNW,338,4.9,9.2,43,0.00,,,0.00,WUHU216HW,2013-03-04 20:32:00,
2013-03-04 15:37:00,44.5,23.8,29.91,WNW,293,4.0,8.9,44,0.00,,,0.00,WUHU216HW,2013-03-04 20:37:00,
2013-03-04 15:42:00,43.6,22.4,29.91,NW,315,6.3,9.4,43,0.00,,,0.00,WUHU216HW,2013-03-04 20:42:00,
2013-03-04 15:47:00,43.2,23.2,29.90,West,270,4.7,9.4,45,0.00,,,0.00,WUHU216HW,2013-03-04 20:47:00,
2013-03-04 15:52:00,43.2,23.2,29.91,NW,315,9.6,9.6,45,0.00,,,0.00,WUHU216HW,2013-03-04 20:52:00,
2013-03-04 15:57:00,43.2,23.2,29.91,North,0,5.8,9.6,45,0.00,,,0.00,WUHU216HW,2013-03-04 20:57:00,
2013-03-04 16:02:00,43.2,23.2,29.91,NW,315,6.3,8.5,45,0.00,,,0.00,WUHU216HW,2013-03-04 21:02:00,
2013-03-04 16:07:00,43.2,23.2,29.91,NW,315,4.0,11.6,45,0.00,,,0.00,WUHU216HW,2013-03-04 21:07:00,
2013-03-04 16:12:00,43.6,23.5,29.91,NNW,338,3.6,11.6,45,0.00,,,0.00,WUHU216HW,2013-03-04 21:12:00,
2013-03-04 16:17:00,44.1,24.0,29.91,SW,225,4.0,7.6,45,0.00,,,0.00,WUHU216HW,2013-03-04 21:17:00,
2013-03-04 16:22:00,43.9,23.3,29.91,NNW,338,6.5,7.6,44,0.00,,,0.00,WUHU216HW,2013-03-04 21:22:00,
2013-03-04 16:27:00,43.7,23.1,29.91,North,0,3.1,7.6,44,0.00,,,0.00,WUHU216HW,2013-03-04 21:27:00,
2013-03-04 16:32:00,43.0,23.1,29.91,West,270,2.5,6.5,45,0.00,,,0.00,WUHU216HW,2013-03-04 21:32:00,
2013-03-04 16:37:00,43.6,23.5,29.91,WNW,293,4.9,7.6,45,0.00,,,0.00,WUHU216HW,2013-03-04 21:37:00,
2013-03-04 16:42:00,44.1,23.5,29.92,NW,315,5.8,7.6,44,0.00,,,0.00,WUHU216HW,2013-03-04 21:42:00,
2013-03-04 16:47:00,44.3,23.0,29.92,West,270,3.6,11.4,43,0.00,,,0.00,WUHU216HW,2013-03-04 21:47:00,
2013-03-04 16:52:00,45.0,23.8,29.92,WSW,248,6.9,11.4,43,0.00,,,0.00,WUHU216HW,2013-03-04 21:52:00,
2013-03-04 16:57:00,45.0,23.2,29.92,North,0,4.7,7.6,42,0.00,,,0.00,WUHU216HW,2013-03-04 21:57:00,
2013-03-04 17:02:00,44.6,23.4,29.92,NW,315,1.6,7.6,43,0.00,,,0.00,WUHU216HW,2013-03-04 22:02:00,
2013-03-04 17:07:00,43.6,22.4,29.92,NW,315,6.0,7.6,43,0.00,,,0.00,WUHU216HW,2013-03-04 22:07:00,
2013-03-04 17:12:00,42.8,22.3,29.92,WNW,293,4.3,8.5,44,0.00,,,0.00,WUHU216HW,2013-03-04 22:12:00,
2013-03-04 17:17:00,42.8,22.3,29.92,WSW,248,4.0,8.5,44,0.00,,,0.00,WUHU216HW,2013-03-04 22:17:00,
2013-03-04 17:22:00,42.8,22.3,29.92,WSW,248,4.0,4.0,44,0.00,,,0.00,WUHU216HW,2013-03-04 22:22:00,
2013-03-04 17:43:00,41.2,21.9,29.93,NW,315,3.1,3.1,46,0.00,,,0.00,WUHU216HW,2013-03-04 22:43:00,
2013-03-04 17:48:00,41.0,21.7,29.94,NNW,338,3.8,5.6,46,0.00,,,0.00,WUHU216HW,2013-03-04 22:48:00,
2013-03-04 17:53:00,40.9,21.5,29.94,NW,315,3.8,5.6,46,0.00,,,0.00,WUHU216HW,2013-03-04 22:53:00,
2013-03-04 17:58:00,40.7,21.9,29.94,NNW,338,1.8,4.7,47,0.00,,,0.00,WUHU216HW,2013-03-04 22:58:00,
2013-03-04 18:03:00,40.3,21.5,29.94,WNW,293,5.4,6.0,47,0.00,,,0.00,WUHU216HW,2013-03-04 23:03:00,
2013-03-04 18:08:00,40.1,21.4,29.94,West,270,2.7,6.0,47,0.00,,,0.00,WUHU216HW,2013-03-04 23:08:00,
2013-03-04 18:13:00,40.0,21.8,29.95,WNW,293,7.4,7.4,48,0.00,,,0.00,WUHU216HW,2013-03-04 23:13:00,
2013-03-04 18:18:00,40.0,21.8,29.95,NNW,338,4.7,7.4,48,0.00,,,0.00,WUHU216HW,2013-03-04 23:18:00,
2013-03-04 18:23:00,39.8,21.6,29.95,WNW,293,2.7,6.9,48,0.00,,,0.00,WUHU216HW,2013-03-04 23:23:00,
2013-03-04 18:28:00,39.6,21.4,29.95,West,270,2.2,6.9,48,0.00,,,0.00,WUHU216HW,2013-03-04 23:28:00,
2013-03-04 18:33:00,39.4,20.7,29.95,WSW,248,4.0,5.4,47,0.00,,,0.00,WUHU216HW,2013-03-04 23:33:00,
2013-03-04 18:38:00,39.2,21.1,29.96,WNW,293,4.9,4.9,48,0.00,,,0.00,WUHU216HW,2013-03-04 23:38:00,
2013-03-04 18:43:00,39.2,21.1,29.96,West,270,2.2,4.9,48,0.00,,,0.00,WUHU216HW,2013-03-04 23:43:00,
2013-03-04 18:48:00,39.1,21.0,29.96,WNW,293,3.6,4.0,48,0.00,,,0.00,WUHU216HW,2013-03-04 23:48:00,
2013-03-04 18:53:00,39.1,21.0,29.96,West,270,3.1,4.7,48,0.00,,,0.00,WUHU216HW,2013-03-04 23:53:00,
2013-03-04 18:58:00,38.9,21.3,29.97,NW,315,5.4,5.4,49,0.00,,,0.00,WUHU216HW,2013-03-04 23:58:00,
2013-03-04 19:03:00,38.7,21.2,29.97,WNW,293,1.8,5.4,49,0.00,,,0.00,WUHU216HW,2013-03-05 00:03:00,
2013-03-04 19:08:00,38.5,21.0,29.97,West,270,3.6,4.7,49,0.00,,,0.00,WUHU216HW,2013-03-05 00:08:00,
2013-03-04 19:13:00,38.5,21.5,29.98,WSW,248,2.9,4.7,50,0.00,,,0.00,WUHU216HW,2013-03-05 00:13:00,
2013-03-04 19:18:00,38.3,21.3,29.98,NW,315,2.5,4.7,50,0.00,,,0.00,WUHU216HW,2013-03-05 00:18:00,
2013-03-04 19:23:00,38.2,21.2,29.98,WNW,293,2.7,4.9,50,0.00,,,0.00,WUHU216HW,2013-03-05 00:23:00,
2013-03-04 19:28:00,38.2,21.2,29.98,NW,315,3.6,4.9,50,0.00,,,0.00,WUHU216HW,2013-03-05 00:28:00,
2013-03-04 19:33:00,38.0,21.4,29.98,WNW,293,1.3,3.6,51,0.00,,,0.00,WUHU216HW,2013-03-05 00:33:00,
2013-03-04 19:38:00,37.8,21.2,29.99,WNW,293,1.3,2.5,51,0.00,,,0.00,WUHU216HW,2013-03-05 00:38:00,
2013-03-04 19:43:00,37.6,21.2,29.99,West,270,1.1,4.0,51,0.00,,,0.00,WUHU216HW,2013-03-05 00:43:00,
2013-03-04 19:48:00,37.6,21.2,29.99,WSW,248,1.8,4.0,51,0.00,,,0.00,WUHU216HW,2013-03-05 00:48:00,
2013-03-04 19:53:00,37.4,21.0,29.99,NNW,338,4.0,4.0,51,0.00,,,0.00,WUHU216HW,2013-03-05 00:53:00,
2013-03-04 19:58:00,37.4,21.0,30.00,NNW,338,4.9,4.9,51,0.00,,,0.00,WUHU216HW,2013-03-05 00:58:00,
2013-03-04 20:03:00,37.4,21.0,30.00,NW,315,6.0,7.4,51,0.00,,,0.00,WUHU216HW,2013-03-05 01:03:00,
2013-03-04 20:08:00,37.3,20.8,30.00,North,0,4.0,7.4,51,0.00,,,0.00,WUHU216HW,2013-03-05 01:08:00,
2013-03-04 20:13:00,37.1,21.1,30.00,NNW,338,5.6,6.0,52,0.00,,,0.00,WUHU216HW,2013-03-05 01:13:00,
2013-03-04 20:18:00,37.1,21.1,30.00,North,0,3.6,6.0,52,0.00,,,0.00,WUHU216HW,2013-03-05 01:18:00,
2013-03-04 20:23:00,36.9,20.9,30.00,NNW,338,5.8,6.7,52,0.00,,,0.00,WUHU216HW,2013-03-05 01:23:00,
2013-03-04 20:28:00,36.7,21.2,30.00,NNW,338,4.0,7.4,53,0.00,,,0.00,WUHU216HW,2013-03-05 01:28:00,
2013-03-04 20:33:00,36.7,21.2,30.00,NNE,23,3.8,7.4,53,0.00,,,0.00,WUHU216HW,2013-03-05 01:33:00,
2013-03-04 20:38:00,36.5,21.0,30.00,NNW,338,6.9,6.9,53,0.00,,,0.00,WUHU216HW,2013-03-05 01:38:00,
2013-03-04 20:43:00,36.4,20.9,30.00,North,0,2.2,6.9,53,0.00,,,0.00,WUHU216HW,2013-03-05 01:43:00,
2013-03-04 20:48:00,36.4,21.2,30.00,WNW,293,4.7,5.8,54,0.00,,,0.00,WUHU216HW,2013-03-05 01:48:00,
2013-03-04 20:53:00,36.4,21.2,30.00,NNW,338,4.7,6.7,54,0.00,,,0.00,WUHU216HW,2013-03-05 01:53:00,
2013-03-04 20:58:00,36.4,21.2,30.00,NW,315,3.1,6.7,54,0.00,,,0.00,WUHU216HW,2013-03-05 01:58:00,
2013-03-04 21:03:00,36.2,21.2,30.00,NNW,338,6.9,8.5,54,0.00,,,0.00,WUHU216HW,2013-03-05 02:03:00,
2013-03-04 21:08:00,36.0,21.4,30.00,NNW,338,2.9,8.5,55,0.00,,,0.00,WUHU216HW,2013-03-05 02:08:00,
2013-03-04 21:13:00,36.0,21.4,30.00,NNW,338,4.7,6.9,55,0.00,,,0.00,WUHU216HW,2013-03-05 02:13:00,
2013-03-04 21:18:00,36.0,21.4,30.01,North,0,3.1,8.3,55,0.00,,,0.00,WUHU216HW,2013-03-05 02:18:00,
2013-03-04 21:23:00,36.0,21.4,30.01,NNW,338,2.0,8.3,55,0.00,,,0.00,WUHU216HW,2013-03-05 02:23:00,
2013-03-04 21:28:00,35.8,21.3,30.02,North,0,2.9,6.7,55,0.00,,,0.00,WUHU216HW,2013-03-05 02:28:00,
2013-03-04 21:33:00,35.8,21.3,30.02,WSW,248,4.0,4.7,55,0.00,,,0.00,WUHU216HW,2013-03-05 02:33:00,
2013-03-04 21:38:00,35.6,21.5,30.02,WNW,293,3.1,6.7,56,0.00,,,0.00,WUHU216HW,2013-03-05 02:38:00,
2013-03-04 21:43:00,35.6,21.5,30.02,NNW,338,4.0,6.7,56,0.00,,,0.00,WUHU216HW,2013-03-05 02:43:00,
2013-03-04 21:48:00,35.6,21.5,30.02,NW,315,5.1,5.1,56,0.00,,,0.00,WUHU216HW,2013-03-05 02:48:00,
2013-03-04 21:53:00,35.6,22.0,30.02,NW,315,6.3,10.3,57,0.00,,,0.00,WUHU216HW,2013-03-05 02:53:00,
2013-03-04 21:58:00,35.6,22.0,30.02,NW,315,4.0,10.3,57,0.00,,,0.00,WUHU216HW,2013-03-05 02:58:00,
2013-03-04 22:03:00,35.5,21.8,30.02,West,270,2.2,5.1,57,0.00,,,0.00,WUHU216HW,2013-03-05 03:03:00,
2013-03-04 22:08:00,35.5,21.8,30.02,NW,315,4.0,6.5,57,0.00,,,0.00,WUHU216HW,2013-03-05 03:08:00,
2013-03-04 22:13:00,35.5,22.1,30.03,NNW,338,4.9,6.5,58,0.00,,,0.00,WUHU216HW,2013-03-05 03:13:00,
2013-03-04 22:18:00,35.5,22.1,30.03,NNW,338,3.6,6.9,58,0.00,,,0.00,WUHU216HW,2013-03-05 03:18:00,
2013-03-04 22:23:00,35.5,22.1,30.03,North,0,3.6,6.9,58,0.00,,,0.00,WUHU216HW,2013-03-05 03:23:00,
2013-03-04 22:28:00,35.5,22.1,30.03,North,0,1.8,6.3,58,0.00,,,0.00,WUHU216HW,2013-03-05 03:28:00,
2013-03-04 22:33:00,35.3,22.0,30.03,NW,315,3.6,5.1,58,0.00,,,0.00,WUHU216HW,2013-03-05 03:33:00,
2013-03-04 22:38:00,35.3,22.4,30.03,NW,315,4.5,4.5,59,0.00,,,0.00,WUHU216HW,2013-03-05 03:38:00,
2013-03-04 22:43:00,35.3,22.4,30.03,NW,315,4.5,4.5,59,0.00,,,0.00,WUHU216HW,2013-03-05 03:43:00,
2013-03-04 23:00:00,34.9,22.1,30.03,NW,315,3.1,3.1,59,0.00,,,0.00,WUHU216HW,2013-03-05 04:00:00,
2013-03-04 23:05:00,34.9,21.6,30.03,WNW,293,4.7,4.7,58,0.00,,,0.00,WUHU216HW,2013-03-05 04:05:00,
2013-03-04 23:10:00,34.7,21.9,30.03,NW,315,6.0,6.0,59,0.00,,,0.00,WUHU216HW,2013-03-05 04:10:00,
2013-03-04 23:15:00,34.6,21.7,30.03,NNW,338,2.9,6.0,59,0.00,,,0.00,WUHU216HW,2013-03-05 04:15:00,
2013-03-04 23:20:00,34.6,21.7,30.03,NNW,338,4.7,6.5,59,0.00,,,0.00,WUHU216HW,2013-03-05 04:20:00,
2013-03-04 23:25:00,34.6,21.7,30.04,NNW,338,3.1,6.5,59,0.00,,,0.00,WUHU216HW,2013-03-05 04:25:00,
2013-03-04 23:30:00,34.6,22.1,30.03,North,0,7.6,7.6,60,0.00,,,0.00,WUHU216HW,2013-03-05 04:30:00,
2013-03-04 23:35:00,34.6,22.1,30.04,NW,315,3.8,7.6,60,0.00,,,0.00,WUHU216HW,2013-03-05 04:35:00,
2013-03-04 23:41:00,34.4,22.0,30.03,NW,315,2.5,5.6,60,0.00,,,0.00,WUHU216HW,2013-03-05 04:41:00,
2013-03-04 23:46:00,34.2,21.8,30.03,North,0,1.1,3.8,60,0.00,,,0.00,WUHU216HW,2013-03-05 04:46:00,
2013-03-04 23:51:00,34.2,21.8,30.04,NW,315,1.6,3.8,60,0.00,,,0.00,WUHU216HW,2013-03-05 04:51:00,
2013-03-04 23:56:00,34.2,21.8,30.04,NNW,338,1.8,4.9,60,0.00,,,0.00,WUHU216HW,2013-03-05 04:56:00,